sensor_id;sensor_type;location;lat;lon;timestamp;pressure;altitude;pressure_sealevel;temperature;humidity
75646;BME280;64237;52.438;13.240;2022-12-07T00:01:39;100874.56;;;2.49;89.07
75646;BME280;64237;52.438;13.240;2022-12-07T00:04:07;100860.63;;;2.44;88.37
75646;BME280;64237;52.438;13.240;2022-12-07T00:06:34;100869.84;;;2.43;89.49
75646;BME280;64237;52.438;13.240;2022-12-07T00:08:59;100863.72;;;2.41;87.83
75646;BME280;64237;52.438;13.240;2022-12-07T00:11:25;100868.44;;;2.32;88.38
75646;BME280;64237;52.438;13.240;2022-12-07T00:13:53;100870.13;;;2.33;88.67
75646;BME280;64237;52.438;13.240;2022-12-07T00:16:21;100866.06;;;2.44;89.91
75646;BME280;64237;52.438;13.240;2022-12-07T00:18:47;100858.84;;;2.36;88.37
75646;BME280;64237;52.438;13.240;2022-12-07T00:21:15;100861.75;;;2.35;90.21
75646;BME280;64237;52.438;13.240;2022-12-07T00:23:42;100863.59;;;2.20;88.69
75646;BME280;64237;52.438;13.240;2022-12-07T00:26:10;100854.88;;;2.24;88.18
75646;BME280;64237;52.438;13.240;2022-12-07T00:28:36;100848.72;;;2.08;89.64
75646;BME280;64237;52.438;13.240;2022-12-07T00:31:08;100848.72;;;2.08;88.67
75646;BME280;64237;52.438;13.240;2022-12-07T00:33:34;100841.28;;;2.01;87.29
75646;BME280;64237;52.438;13.240;2022-12-07T00:36:01;100835.94;;;1.93;88.59
75646;BME280;64237;52.438;13.240;2022-12-07T00:38:30;100840.06;;;1.89;87.62
75646;BME280;64237;52.438;13.240;2022-12-07T00:40:58;100834.00;;;1.79;87.14
75646;BME280;64237;52.438;13.240;2022-12-07T00:43:24;100839.06;;;1.82;88.18
75646;BME280;64237;52.438;13.240;2022-12-07T00:45:49;100829.38;;;1.80;87.42
75646;BME280;64237;52.438;13.240;2022-12-07T00:48:15;100828.34;;;1.81;88.03
75646;BME280;64237;52.438;13.240;2022-12-07T00:50:40;100822.72;;;1.82;87.94
75646;BME280;64237;52.438;13.240;2022-12-07T00:53:05;100824.41;;;1.83;87.77
75646;BME280;64237;52.438;13.240;2022-12-07T00:55:35;100826.28;;;1.83;88.04
75646;BME280;64237;52.438;13.240;2022-12-07T00:58:00;100823.06;;;1.64;88.15
75646;BME280;64237;52.438;13.240;2022-12-07T01:00:25;100824.03;;;1.71;89.10
75646;BME280;64237;52.438;13.240;2022-12-07T01:02:51;100825.16;;;1.77;88.48
75646;BME280;64237;52.438;13.240;2022-12-07T01:05:17;100819.03;;;1.75;87.88
75646;BME280;64237;52.438;13.240;2022-12-07T01:07:42;100820.00;;;1.82;89.17
75646;BME280;64237;52.438;13.240;2022-12-07T01:10:07;100822.91;;;1.95;88.63
75646;BME280;64237;52.438;13.240;2022-12-07T01:12:33;100810.91;;;1.90;87.90
75646;BME280;64237;52.438;13.240;2022-12-07T01:14:58;100814.53;;;1.82;87.75
75646;BME280;64237;52.438;13.240;2022-12-07T01:17:23;100820.00;;;1.82;87.89
75646;BME280;64237;52.438;13.240;2022-12-07T01:19:49;100803.31;;;1.77;87.77
75646;BME280;64237;52.438;13.240;2022-12-07T01:22:14;100803.69;;;1.74;88.03
75646;BME280;64237;52.438;13.240;2022-12-07T01:24:39;100803.31;;;1.77;88.57
75646;BME280;64237;52.438;13.240;2022-12-07T01:27:05;100801.19;;;1.73;87.66
75646;BME280;64237;52.438;13.240;2022-12-07T01:29:30;100796.94;;;1.70;87.60
75646;BME280;64237;52.438;13.240;2022-12-07T01:31:55;100788.09;;;1.68;87.84
75646;BME280;64237;52.438;13.240;2022-12-07T01:34:21;100789.50;;;1.64;88.31
75646;BME280;64237;52.438;13.240;2022-12-07T01:36:46;100793.19;;;1.71;87.75
75646;BME280;64237;52.438;13.240;2022-12-07T01:39:11;100787.84;;;1.55;87.43
75646;BME280;64237;52.438;13.240;2022-12-07T01:41:39;100790.88;;;1.60;86.97
75646;BME280;64237;52.438;13.240;2022-12-07T01:44:13;100798.56;;;1.56;86.98
75646;BME280;64237;52.438;13.240;2022-12-07T01:46:40;100790.75;;;1.53;87.26
75646;BME280;64237;52.438;13.240;2022-12-07T01:49:08;100795.84;;;1.56;87.95
75646;BME280;64237;52.438;13.240;2022-12-07T01:51:35;100786.16;;;1.54;88.19
75646;BME280;64237;52.438;13.240;2022-12-07T01:54:02;100787.19;;;1.53;88.96
75646;BME280;64237;52.438;13.240;2022-12-07T01:56:29;100777.31;;;1.52;89.04
75646;BME280;64237;52.438;13.240;2022-12-07T01:58:55;100774.31;;;1.47;88.10
75646;BME280;64237;52.438;13.240;2022-12-07T02:01:21;100778.44;;;1.43;88.80
75646;BME280;64237;52.438;13.240;2022-12-07T02:03:47;100767.75;;;1.56;89.87
75646;BME280;64237;52.438;13.240;2022-12-07T02:06:17;100775.34;;;1.46;88.71
75646;BME280;64237;52.438;13.240;2022-12-07T02:08:44;100758.63;;;1.49;89.25
75646;BME280;64237;52.438;13.240;2022-12-07T02:11:11;100756.28;;;1.46;88.91
75646;BME280;64237;52.438;13.240;2022-12-07T02:13:39;100765.78;;;1.50;88.65
75646;BME280;64237;52.438;13.240;2022-12-07T02:21:55;100750.72;;;1.54;89.07
75646;BME280;64237;52.438;13.240;2022-12-07T02:25:08;100737.84;;;1.48;88.11
75646;BME280;64237;52.438;13.240;2022-12-07T02:30:13;100752.69;;;1.45;88.30
75646;BME280;64237;52.438;13.240;2022-12-07T02:33:04;100744.50;;;1.45;89.01
75646;BME280;64237;52.438;13.240;2022-12-07T02:35:36;100749.41;;;1.50;87.76
75646;BME280;64237;52.438;13.240;2022-12-07T02:38:26;100736.88;;;1.41;88.34
75646;BME280;64237;52.438;13.240;2022-12-07T02:41:17;100739.81;;;1.54;88.94
75646;BME280;64237;52.438;13.240;2022-12-07T02:43:48;100738.25;;;1.59;87.63
75646;BME280;64237;52.438;13.240;2022-12-07T02:46:38;100737.56;;;1.57;87.51
75646;BME280;64237;52.438;13.240;2022-12-07T02:49:03;100732.97;;;1.58;88.68
75646;BME280;64237;52.438;13.240;2022-12-07T02:51:31;100738.78;;;1.55;88.44
75646;BME280;64237;52.438;13.240;2022-12-07T02:53:56;100725.47;;;1.60;89.00
75646;BME280;64237;52.438;13.240;2022-12-07T03:13:30;100692.97;;;1.73;88.56
75646;BME280;64237;52.438;13.240;2022-12-07T03:18:42;100687.31;;;1.89;88.48
75646;BME280;64237;52.438;13.240;2022-12-07T03:21:14;100690.88;;;1.90;87.74
75646;BME280;64237;52.438;13.240;2022-12-07T03:23:42;100691.06;;;1.88;87.83
75646;BME280;64237;52.438;13.240;2022-12-07T03:26:12;100674.59;;;1.96;87.73
75646;BME280;64237;52.438;13.240;2022-12-07T03:28:42;100673.75;;;1.96;87.13
75646;BME280;64237;52.438;13.240;2022-12-07T03:31:19;100669.59;;;2.00;86.21
75646;BME280;64237;52.438;13.240;2022-12-07T03:34:24;100661.72;;;1.90;86.94
75646;BME280;64237;52.438;13.240;2022-12-07T03:37:10;100666.88;;;2.00;88.40
75646;BME280;64237;52.438;13.240;2022-12-07T03:40:10;100653.63;;;1.97;87.12
75646;BME280;64237;52.438;13.240;2022-12-07T03:42:36;100645.91;;;2.00;85.65
75646;BME280;64237;52.438;13.240;2022-12-07T03:45:02;100637.44;;;1.95;87.05
75646;BME280;64237;52.438;13.240;2022-12-07T03:47:47;100644.59;;;1.96;87.84
75646;BME280;64237;52.438;13.240;2022-12-07T03:50:28;100637.34;;;2.03;87.92
75646;BME280;64237;52.438;13.240;2022-12-07T03:53:12;100621.06;;;1.95;86.96
75646;BME280;64237;52.438;13.240;2022-12-07T03:55:42;100629.91;;;1.97;87.22
75646;BME280;64237;52.438;13.240;2022-12-07T03:58:11;100631.34;;;1.93;87.46
75646;BME280;64237;52.438;13.240;2022-12-07T04:00:38;100627.84;;;1.99;87.43
75646;BME280;64237;52.438;13.240;2022-12-07T04:03:03;100628.69;;;2.00;86.56
75646;BME280;64237;52.438;13.240;2022-12-07T04:05:29;100627.13;;;1.91;87.53
75646;BME280;64237;52.438;13.240;2022-12-07T04:07:54;100631.81;;;1.82;88.00
75646;BME280;64237;52.438;13.240;2022-12-07T04:10:20;100626.00;;;1.85;88.15
75646;BME280;64237;52.438;13.240;2022-12-07T04:12:45;100616.41;;;1.89;87.26
75646;BME280;64237;52.438;13.240;2022-12-07T04:15:11;100610.94;;;1.89;87.73
75646;BME280;64237;52.438;13.240;2022-12-07T04:17:37;100602.38;;;1.92;88.24
75646;BME280;64237;52.438;13.240;2022-12-07T04:20:03;100605.41;;;1.83;87.50
75646;BME280;64237;52.438;13.240;2022-12-07T04:22:29;100597.78;;;1.78;87.98
75646;BME280;64237;52.438;13.240;2022-12-07T04:24:54;100595.25;;;1.77;88.51
75646;BME280;64237;52.438;13.240;2022-12-07T04:27:20;100598.63;;;1.79;87.79
75646;BME280;64237;52.438;13.240;2022-12-07T04:29:45;100597.03;;;1.84;88.13
75646;BME280;64237;52.438;13.240;2022-12-07T04:32:10;100584.91;;;1.87;88.74
75646;BME280;64237;52.438;13.240;2022-12-07T04:34:36;100598.72;;;1.85;88.66
75646;BME280;64237;52.438;13.240;2022-12-07T04:37:01;100584.34;;;1.77;89.83
75646;BME280;64237;52.438;13.240;2022-12-07T04:39:29;100582.72;;;1.82;89.56
75646;BME280;64237;52.438;13.240;2022-12-07T04:41:55;100582.72;;;1.82;88.65
75646;BME280;64237;52.438;13.240;2022-12-07T04:44:22;100582.81;;;1.89;88.49
75646;BME280;64237;52.438;13.240;2022-12-07T04:46:48;100570.69;;;1.91;88.42
75646;BME280;64237;52.438;13.240;2022-12-07T04:49:14;100573.53;;;1.83;88.97
75646;BME280;64237;52.438;13.240;2022-12-07T04:51:40;100581.59;;;1.91;89.17
75646;BME280;64237;52.438;13.240;2022-12-07T04:54:05;100570.31;;;1.94;89.77
75646;BME280;64237;52.438;13.240;2022-12-07T04:56:32;100568.06;;;1.83;90.08
75646;BME280;64237;52.438;13.240;2022-12-07T04:58:58;100561.56;;;1.84;89.91
75646;BME280;64237;52.438;13.240;2022-12-07T05:01:23;100561.47;;;1.92;90.95
75646;BME280;64237;52.438;13.240;2022-12-07T05:03:49;100569.06;;;1.97;90.61
75646;BME280;64237;52.438;13.240;2022-12-07T05:06:15;100562.53;;;2.13;90.00
75646;BME280;64237;52.438;13.240;2022-12-07T05:08:41;100555.41;;;2.12;89.79
75646;BME280;64237;52.438;13.240;2022-12-07T05:11:07;100559.94;;;2.04;89.79
75646;BME280;64237;52.438;13.240;2022-12-07T05:13:34;100554.84;;;2.01;90.27
75646;BME280;64237;52.438;13.240;2022-12-07T05:15:59;100554.09;;;2.08;90.94
75646;BME280;64237;52.438;13.240;2022-12-07T05:18:25;100554.19;;;1.99;90.65
75646;BME280;64237;52.438;13.240;2022-12-07T05:20:50;100555.13;;;2.06;91.63
75646;BME280;64237;52.438;13.240;2022-12-07T05:23:16;100548.63;;;2.08;90.45
75646;BME280;64237;52.438;13.240;2022-12-07T05:25:42;100543.06;;;2.16;91.30
75646;BME280;64237;52.438;13.240;2022-12-07T05:28:07;100550.06;;;2.25;91.14
75646;BME280;64237;52.438;13.240;2022-12-07T05:30:32;100551.63;;;2.13;91.34
75646;BME280;64237;52.438;13.240;2022-12-07T05:32:58;100542.53;;;2.27;90.78
75646;BME280;64237;52.438;13.240;2022-12-07T05:35:24;100536.97;;;2.35;90.13
75646;BME280;64237;52.438;13.240;2022-12-07T05:37:49;100533.84;;;2.38;90.83
75646;BME280;64237;52.438;13.240;2022-12-07T05:40:15;100535.13;;;2.42;90.77
75646;BME280;64237;52.438;13.240;2022-12-07T05:42:41;100535.78;;;2.23;90.90
75646;BME280;64237;52.438;13.240;2022-12-07T05:45:07;100529.75;;;2.27;91.05
75646;BME280;64237;52.438;13.240;2022-12-07T05:47:33;100527.84;;;2.28;91.60
75646;BME280;64237;52.438;13.240;2022-12-07T05:49:58;100525.38;;;2.33;90.83
75646;BME280;64237;52.438;13.240;2022-12-07T05:52:24;100518.50;;;2.37;91.65
75646;BME280;64237;52.438;13.240;2022-12-07T05:54:49;100515.78;;;2.37;91.72
75646;BME280;64237;52.438;13.240;2022-12-07T05:57:15;100509.78;;;2.27;91.04
75646;BME280;64237;52.438;13.240;2022-12-07T05:59:40;100510.03;;;2.53;91.34
75646;BME280;64237;52.438;13.240;2022-12-07T06:02:09;100515.09;;;2.56;90.98
75646;BME280;64237;52.438;13.240;2022-12-07T06:04:37;100518.72;;;2.63;91.45
75646;BME280;64237;52.438;13.240;2022-12-07T06:07:04;100511.34;;;2.57;91.31
75646;BME280;64237;52.438;13.240;2022-12-07T06:09:30;100509.69;;;2.63;91.36
75646;BME280;64237;52.438;13.240;2022-12-07T06:11:56;100508.84;;;2.62;90.52
75646;BME280;64237;52.438;13.240;2022-12-07T06:14:40;100494.53;;;2.60;91.59
75646;BME280;64237;52.438;13.240;2022-12-07T06:17:06;100500.00;;;2.60;91.02
75646;BME280;64237;52.438;13.240;2022-12-07T06:19:32;100502.50;;;2.55;91.21
75646;BME280;64237;52.438;13.240;2022-12-07T06:21:57;100503.38;;;2.62;91.55
75646;BME280;64237;52.438;13.240;2022-12-07T06:24:23;100494.09;;;2.57;91.97
75646;BME280;64237;52.438;13.240;2022-12-07T06:26:49;100507.56;;;2.58;91.95
75646;BME280;64237;52.438;13.240;2022-12-07T06:29:14;100503.78;;;2.59;92.02
75646;BME280;64237;52.438;13.240;2022-12-07T06:31:40;100497.13;;;2.68;92.54
75646;BME280;64237;52.438;13.240;2022-12-07T06:34:16;100493.88;;;2.80;91.31
75646;BME280;64237;52.438;13.240;2022-12-07T06:36:42;100505.56;;;2.73;91.89
75646;BME280;64237;52.438;13.240;2022-12-07T06:39:08;100499.56;;;2.85;91.75
75646;BME280;64237;52.438;13.240;2022-12-07T06:41:37;100492.19;;;2.79;91.20
75646;BME280;64237;52.438;13.240;2022-12-07T06:44:04;100487.78;;;2.84;91.15
75646;BME280;64237;52.438;13.240;2022-12-07T06:46:29;100498.47;;;5.79;95.20
75646;BME280;64237;52.438;13.240;2022-12-07T06:48:55;100484.41;;;4.65;86.13
75646;BME280;64237;52.438;13.240;2022-12-07T06:51:20;100494.03;;;4.14;86.04
75646;BME280;64237;52.438;13.240;2022-12-07T06:53:46;100483.81;;;3.69;87.87
75646;BME280;64237;52.438;13.240;2022-12-07T06:56:11;100494.22;;;3.39;88.95
75646;BME280;64237;52.438;13.240;2022-12-07T06:58:36;100479.00;;;3.23;90.03
75646;BME280;64237;52.438;13.240;2022-12-07T07:01:02;100489.94;;;3.23;90.13
75646;BME280;64237;52.438;13.240;2022-12-07T07:03:28;100476.44;;;3.15;90.38
75646;BME280;64237;52.438;13.240;2022-12-07T07:05:53;100483.59;;;3.16;91.26
75646;BME280;64237;52.438;13.240;2022-12-07T07:08:18;100485.72;;;3.21;90.32
75646;BME280;64237;52.438;13.240;2022-12-07T07:10:44;100492.25;;;3.26;90.22
75646;BME280;64237;52.438;13.240;2022-12-07T07:13:09;100489.09;;;3.29;90.85
75646;BME280;64237;52.438;13.240;2022-12-07T07:15:37;100487.81;;;3.25;90.86
75646;BME280;64237;52.438;13.240;2022-12-07T07:18:02;100488.94;;;3.37;88.98
75646;BME280;64237;52.438;13.240;2022-12-07T07:20:28;100492.13;;;3.41;90.90
75646;BME280;64237;52.438;13.240;2022-12-07T07:22:54;100487.03;;;3.31;90.46
75646;BME280;64237;52.438;13.240;2022-12-07T07:25:19;100487.03;;;3.31;91.23
75646;BME280;64237;52.438;13.240;2022-12-07T07:27:45;100497.88;;;3.18;90.97
75646;BME280;64237;52.438;13.240;2022-12-07T07:30:10;100495.16;;;3.18;91.03
75646;BME280;64237;52.438;13.240;2022-12-07T07:32:36;100497.88;;;3.18;91.51
75646;BME280;64237;52.438;13.240;2022-12-07T07:35:02;100495.81;;;3.20;90.13
75646;BME280;64237;52.438;13.240;2022-12-07T07:37:27;100481.94;;;3.22;90.14
75646;BME280;64237;52.438;13.240;2022-12-07T07:39:52;100492.03;;;3.21;91.07
75646;BME280;64237;52.438;13.240;2022-12-07T07:42:18;100488.25;;;3.22;91.11
75646;BME280;64237;52.438;13.240;2022-12-07T07:44:43;100493.22;;;3.12;90.35
75646;BME280;64237;52.438;13.240;2022-12-07T07:47:08;100493.72;;;3.22;91.21
75646;BME280;64237;52.438;13.240;2022-12-07T07:49:34;100482.94;;;3.14;90.86
75646;BME280;64237;52.438;13.240;2022-12-07T07:51:59;100490.25;;;3.07;90.90
75646;BME280;64237;52.438;13.240;2022-12-07T07:54:24;100489.38;;;3.00;90.32
75646;BME280;64237;52.438;13.240;2022-12-07T07:56:50;100486.88;;;3.05;90.21
75646;BME280;64237;52.438;13.240;2022-12-07T07:59:17;100476.31;;;2.95;90.07
75646;BME280;64237;52.438;13.240;2022-12-07T08:01:42;100497.56;;;3.00;89.21
75646;BME280;64237;52.438;13.240;2022-12-07T08:04:08;100506.13;;;2.90;90.18
75646;BME280;64237;52.438;13.240;2022-12-07T08:06:33;100492.09;;;3.00;90.85
75646;BME280;64237;52.438;13.240;2022-12-07T08:08:59;100490.25;;;3.07;90.63
75646;BME280;64237;52.438;13.240;2022-12-07T08:11:24;100504.94;;;3.06;90.81
75646;BME280;64237;52.438;13.240;2022-12-07T08:13:55;100496.59;;;3.14;90.10
75646;BME280;64237;52.438;13.240;2022-12-07T08:16:20;100501.41;;;3.12;89.55
75646;BME280;64237;52.438;13.240;2022-12-07T08:18:45;100502.06;;;3.14;88.41
75646;BME280;64237;52.438;13.240;2022-12-07T08:21:13;100514.28;;;3.18;89.02
75646;BME280;64237;52.438;13.240;2022-12-07T08:23:38;100515.59;;;3.22;86.73
75646;BME280;64237;52.438;13.240;2022-12-07T08:26:05;100504.22;;;3.25;87.79
75646;BME280;64237;52.438;13.240;2022-12-07T08:28:31;100513.91;;;3.28;89.19
75646;BME280;64237;52.438;13.240;2022-12-07T08:31:02;100510.13;;;3.29;87.91
75646;BME280;64237;52.438;13.240;2022-12-07T08:33:28;100499.41;;;3.27;87.17
75646;BME280;64237;52.438;13.240;2022-12-07T08:35:53;100514.09;;;3.26;88.56
75646;BME280;64237;52.438;13.240;2022-12-07T08:38:19;100512.25;;;3.33;86.80
75646;BME280;64237;52.438;13.240;2022-12-07T08:40:52;100512.25;;;3.33;87.84
75646;BME280;64237;52.438;13.240;2022-12-07T08:43:18;100518.19;;;3.37;88.77
75646;BME280;64237;52.438;13.240;2022-12-07T08:45:43;100517.34;;;3.36;87.07
75646;BME280;64237;52.438;13.240;2022-12-07T08:48:10;100516.44;;;3.29;83.48
75646;BME280;64237;52.438;13.240;2022-12-07T08:50:38;100521.47;;;3.26;85.49
75646;BME280;64237;52.438;13.240;2022-12-07T08:53:04;100519.81;;;3.31;83.18
75646;BME280;64237;52.438;13.240;2022-12-07T08:55:31;100523.97;;;3.21;85.14
75646;BME280;64237;52.438;13.240;2022-12-07T08:57:59;100526.94;;;3.26;86.79
75646;BME280;64237;52.438;13.240;2022-12-07T09:00:25;100527.78;;;3.26;83.65
75646;BME280;64237;52.438;13.240;2022-12-07T09:02:51;100536.63;;;3.28;83.61
75646;BME280;64237;52.438;13.240;2022-12-07T09:05:16;100542.97;;;3.35;84.70
75646;BME280;64237;52.438;13.240;2022-12-07T09:07:44;100549.75;;;3.39;83.94
75646;BME280;64237;52.438;13.240;2022-12-07T09:10:11;100544.72;;;3.43;82.67
75646;BME280;64237;52.438;13.240;2022-12-07T09:12:36;100554.69;;;3.23;79.39
75646;BME280;64237;52.438;13.240;2022-12-07T09:15:02;100551.31;;;3.21;79.84
75646;BME280;64237;52.438;13.240;2022-12-07T09:17:32;100557.22;;;3.24;79.84
75646;BME280;64237;52.438;13.240;2022-12-07T09:19:58;100558.03;;;3.18;79.73
75646;BME280;64237;52.438;13.240;2022-12-07T09:22:23;100555.78;;;3.00;80.58
75646;BME280;64237;52.438;13.240;2022-12-07T09:24:49;100559.97;;;3.24;79.52
75646;BME280;64237;52.438;13.240;2022-12-07T09:27:14;100560.56;;;3.26;78.93
75646;BME280;64237;52.438;13.240;2022-12-07T09:29:41;100552.19;;;3.28;78.48
75646;BME280;64237;52.438;13.240;2022-12-07T09:32:06;100557.63;;;3.21;80.46
75646;BME280;64237;52.438;13.240;2022-12-07T09:34:32;100558.50;;;3.28;81.90
75646;BME280;64237;52.438;13.240;2022-12-07T09:36:58;100564.84;;;3.35;81.06
75646;BME280;64237;52.438;13.240;2022-12-07T09:39:25;100563.22;;;3.41;80.07
75646;BME280;64237;52.438;13.240;2022-12-07T09:41:51;100561.78;;;3.17;80.40
75646;BME280;64237;52.438;13.240;2022-12-07T09:44:23;100563.47;;;3.18;83.74
75646;BME280;64237;52.438;13.240;2022-12-07T09:46:49;100566.88;;;3.20;79.92
75646;BME280;64237;52.438;13.240;2022-12-07T09:49:23;100575.66;;;3.16;80.53
75646;BME280;64237;52.438;13.240;2022-12-07T09:52:16;100576.56;;;3.23;80.57
75646;BME280;64237;52.438;13.240;2022-12-07T09:54:46;100573.19;;;3.27;81.58
75646;BME280;64237;52.438;13.240;2022-12-07T09:57:12;100575.72;;;3.29;82.07
75646;BME280;64237;52.438;13.240;2022-12-07T09:59:38;100572.72;;;3.17;80.04
75646;BME280;64237;52.438;13.240;2022-12-07T10:04:57;100584.06;;;3.14;79.08
75646;BME280;64237;52.438;13.240;2022-12-07T10:07:23;100581.97;;;3.16;80.67
75646;BME280;64237;52.438;13.240;2022-12-07T10:09:49;100573.50;;;3.11;79.56
75646;BME280;64237;52.438;13.240;2022-12-07T10:12:14;100576.75;;;3.21;81.92
75646;BME280;64237;52.438;13.240;2022-12-07T10:14:54;100578.47;;;3.29;78.30
75646;BME280;64237;52.438;13.240;2022-12-07T10:17:37;100570.66;;;3.19;79.10
75646;BME280;64237;52.438;13.240;2022-12-07T10:22:37;100580.75;;;3.25;81.67
75646;BME280;64237;52.438;13.240;2022-12-07T10:25:18;100573.19;;;3.27;80.82
75646;BME280;64237;52.438;13.240;2022-12-07T10:27:43;100572.72;;;3.17;80.92
75646;BME280;64237;52.438;13.240;2022-12-07T10:30:22;100570.72;;;3.32;81.50
75646;BME280;64237;52.438;13.240;2022-12-07T10:32:47;100560.09;;;3.44;82.50
75646;BME280;64237;52.438;13.240;2022-12-07T10:37:53;100561.19;;;3.56;81.19
75646;BME280;64237;52.438;13.240;2022-12-07T10:43:18;100563.22;;;3.48;80.06
75646;BME280;64237;52.438;13.240;2022-12-07T10:51:45;100557.75;;;3.48;81.81
75646;BME280;64237;52.438;13.240;2022-12-07T10:57:06;100559.34;;;3.70;83.85
75646;BME280;64237;52.438;13.240;2022-12-07T11:02:56;100552.03;;;3.77;80.31
75646;BME280;64237;52.438;13.240;2022-12-07T11:10:55;100557.91;;;3.74;80.41
75646;BME280;64237;52.438;13.240;2022-12-07T11:13:29;100556.66;;;3.76;80.45
75646;BME280;64237;52.438;13.240;2022-12-07T11:16:21;100548.25;;;3.78;79.71
75646;BME280;64237;52.438;13.240;2022-12-07T11:19:06;100541.75;;;3.86;81.20
75646;BME280;64237;52.438;13.240;2022-12-07T11:24:16;100535.56;;;3.64;82.01
75646;BME280;64237;52.438;13.240;2022-12-07T11:27:00;100542.72;;;3.65;82.79
75646;BME280;64237;52.438;13.240;2022-12-07T11:32:16;100546.72;;;3.62;80.74
75646;BME280;64237;52.438;13.240;2022-12-07T11:34:53;100546.50;;;3.64;79.60
75646;BME280;64237;52.438;13.240;2022-12-07T11:37:31;100534.97;;;3.75;82.71
75646;BME280;64237;52.438;13.240;2022-12-07T11:40:04;100542.81;;;3.91;82.74
75646;BME280;64237;52.438;13.240;2022-12-07T11:42:37;100541.13;;;3.90;81.54
75646;BME280;64237;52.438;13.240;2022-12-07T11:45:19;100539.66;;;3.94;81.86
75646;BME280;64237;52.438;13.240;2022-12-07T11:47:54;100537.78;;;3.95;80.91
75646;BME280;64237;52.438;13.240;2022-12-07T11:53:15;100531.94;;;4.04;82.59
75646;BME280;64237;52.438;13.240;2022-12-07T11:55:50;100529.41;;;4.09;80.93
75646;BME280;64237;52.438;13.240;2022-12-07T12:00:49;100530.03;;;4.11;79.72
75646;BME280;64237;52.438;13.240;2022-12-07T12:03:37;100521.38;;;4.01;79.05
75646;BME280;64237;52.438;13.240;2022-12-07T12:06:04;100523.94;;;4.09;79.07
75646;BME280;64237;52.438;13.240;2022-12-07T12:08:38;100521.22;;;4.09;81.25
75646;BME280;64237;52.438;13.240;2022-12-07T12:11:21;100518.47;;;4.09;80.40
75646;BME280;64237;52.438;13.240;2022-12-07T12:16:40;100513.84;;;4.17;80.27
75646;BME280;64237;52.438;13.240;2022-12-07T12:19:27;100516.34;;;4.11;80.49
75646;BME280;64237;52.438;13.240;2022-12-07T12:22:10;100515.53;;;4.18;81.47
75646;BME280;64237;52.438;13.240;2022-12-07T12:24:38;100511.53;;;4.20;81.53
75646;BME280;64237;52.438;13.240;2022-12-07T12:27:15;100508.78;;;4.13;81.80
75646;BME280;64237;52.438;13.240;2022-12-07T12:29:43;100510.50;;;4.28;82.51
75646;BME280;64237;52.438;13.240;2022-12-07T12:32:22;100516.81;;;4.28;80.50
75646;BME280;64237;52.438;13.240;2022-12-07T12:35:21;100512.59;;;4.39;80.90
75646;BME280;64237;52.438;13.240;2022-12-07T12:37:54;100510.50;;;4.41;80.20
75646;BME280;64237;52.438;13.240;2022-12-07T12:42:49;100510.53;;;4.54;79.48
75646;BME280;64237;52.438;13.240;2022-12-07T12:45:28;100507.16;;;4.52;78.63
75646;BME280;64237;52.438;13.240;2022-12-07T12:54:04;100502.06;;;4.36;81.12
75646;BME280;64237;52.438;13.240;2022-12-07T12:56:45;100503.97;;;4.42;79.18
75646;BME280;64237;52.438;13.240;2022-12-07T13:15:55;100497.44;;;4.43;79.38
75646;BME280;64237;52.438;13.240;2022-12-07T13:18:40;100484.81;;;4.42;81.46
75646;BME280;64237;52.438;13.240;2022-12-07T13:26:35;100486.09;;;4.53;78.59
75646;BME280;64237;52.438;13.240;2022-12-07T13:29:14;100482.28;;;4.47;78.78
75646;BME280;64237;52.438;13.240;2022-12-07T13:31:43;100491.56;;;4.53;81.28
75646;BME280;64237;52.438;13.240;2022-12-07T13:36:52;100493.22;;;4.40;79.63
75646;BME280;64237;52.438;13.240;2022-12-07T13:39:20;100490.28;;;4.29;78.98
75646;BME280;64237;52.438;13.240;2022-12-07T13:41:55;100485.41;;;4.18;79.31
75646;BME280;64237;52.438;13.240;2022-12-07T13:44:22;100487.91;;;4.12;80.77
75646;BME280;64237;52.438;13.240;2022-12-07T13:49:31;100489.41;;;4.08;79.79
75646;BME280;64237;52.438;13.240;2022-12-07T13:52:14;100492.63;;;7.68;93.26
75646;BME280;64237;52.438;13.240;2022-12-07T13:57:27;100500.34;;;10.12;69.43
75646;BME280;64237;52.438;13.240;2022-12-07T13:59:53;100487.25;;;7.91;64.49
75646;BME280;64237;52.438;13.240;2022-12-07T14:02:26;100492.84;;;6.37;70.07
75646;BME280;64237;52.438;13.240;2022-12-07T14:05:05;100492.66;;;5.49;72.60
75646;BME280;64237;52.438;13.240;2022-12-07T14:07:33;100499.56;;;4.74;78.51
75646;BME280;64237;52.438;13.240;2022-12-07T14:10:02;100500.00;;;4.64;77.71
75646;BME280;64237;52.438;13.240;2022-12-07T14:12:29;100498.09;;;4.52;79.24
75646;BME280;64237;52.438;13.240;2022-12-07T14:14:55;100503.34;;;4.40;78.81
75646;BME280;64237;52.438;13.240;2022-12-07T14:17:24;100511.75;;;4.38;78.63
75646;BME280;64237;52.438;13.240;2022-12-07T14:24:45;100502.06;;;4.23;79.27
75646;BME280;64237;52.438;13.240;2022-12-07T14:27:22;100501.19;;;4.16;80.54
75646;BME280;64237;52.438;13.240;2022-12-07T14:29:50;100500.38;;;4.08;79.75
75646;BME280;64237;52.438;13.240;2022-12-07T14:32:28;100501.41;;;4.07;81.28
75646;BME280;64237;52.438;13.240;2022-12-07T14:34:55;100502.19;;;3.95;81.45
75646;BME280;64237;52.438;13.240;2022-12-07T14:37:20;100484.75;;;3.89;81.26
75646;BME280;64237;52.438;13.240;2022-12-07T14:39:45;100481.94;;;3.76;81.57
75646;BME280;64237;52.438;13.240;2022-12-07T14:42:11;100487.66;;;3.81;80.50
75646;BME280;64237;52.438;13.240;2022-12-07T14:44:36;100493.53;;;3.78;81.71
75646;BME280;64237;52.438;13.240;2022-12-07T14:47:01;100491.41;;;3.67;81.37
75646;BME280;64237;52.438;13.240;2022-12-07T14:49:27;100487.16;;;3.58;82.50
75646;BME280;64237;52.438;13.240;2022-12-07T14:51:52;100497.06;;;3.65;82.04
75646;BME280;64237;52.438;13.240;2022-12-07T14:54:19;100486.75;;;3.61;82.05